X  Schlie├čen METAR Luftfahrt Wetterdaten     EHKD De Kooy Airport
Temperatur
21°C Temperatur
16°C Taupunkt
73% Feuchtigkeit



Wind
12 MPS
19 KM/S
5 M/S
10 KTS



230°
SW
Aktuelle Wetterlage

Meistens vereinzelte Wolken Meistens vereinzelte Wolken
Luftdruck 1015.92 (hPa) - 30 (inHg)
Sichtweite 6 (Meile) - 9.7 (Km)
Flughafen
Flughafen Code EHKD

Position : De Kooy Airport
Entfernung: 34 (mi)

Metar:
EHKD 221055Z AUTO 23010KT 190V270 9999 SCT050 OVC055 21/16 Q1016 BLU NOSIG

Zeit: 22-07-2024 12:55 CEST